sensor_id;sensor_type;location;lat;lon;timestamp;temperature;humidity
23564;DHT22;11960;45.444;11.078;2022-07-04T00:00:18;29.90;55.30
23564;DHT22;11960;45.444;11.078;2022-07-04T00:02:21;29.90;55.20
23564;DHT22;11960;45.444;11.078;2022-07-04T00:04:23;29.80;54.70
23564;DHT22;11960;45.444;11.078;2022-07-04T00:06:26;29.80;55.00
23564;DHT22;11960;45.444;11.078;2022-07-04T00:08:29;29.80;56.80
23564;DHT22;11960;45.444;11.078;2022-07-04T00:10:31;29.70;58.20
23564;DHT22;11960;45.444;11.078;2022-07-04T00:12:34;29.70;59.30
23564;DHT22;11960;45.444;11.078;2022-07-04T00:14:37;29.60;60.10
23564;DHT22;11960;45.444;11.078;2022-07-04T00:16:42;29.60;59.90
23564;DHT22;11960;45.444;11.078;2022-07-04T00:18:45;29.60;60.10
23564;DHT22;11960;45.444;11.078;2022-07-04T00:20:47;29.50;59.40
23564;DHT22;11960;45.444;11.078;2022-07-04T00:22:50;29.50;58.60
23564;DHT22;11960;45.444;11.078;2022-07-04T00:24:52;29.40;58.60
23564;DHT22;11960;45.444;11.078;2022-07-04T00:26:55;29.40;58.40
23564;DHT22;11960;45.444;11.078;2022-07-04T00:28:57;29.40;58.90
23564;DHT22;11960;45.444;11.078;2022-07-04T00:31:00;29.30;59.40
23564;DHT22;11960;45.444;11.078;2022-07-04T00:33:03;29.30;59.20
23564;DHT22;11960;45.444;11.078;2022-07-04T00:35:06;29.30;58.40
23564;DHT22;11960;45.444;11.078;2022-07-04T00:37:09;29.20;58.60
23564;DHT22;11960;45.444;11.078;2022-07-04T00:39:12;29.20;58.10
23564;DHT22;11960;45.444;11.078;2022-07-04T00:41:19;29.10;57.50
23564;DHT22;11960;45.444;11.078;2022-07-04T00:43:23;29.10;57.00
23564;DHT22;11960;45.444;11.078;2022-07-04T00:45:26;29.10;56.60
23564;DHT22;11960;45.444;11.078;2022-07-04T00:47:29;29.10;58.00
23564;DHT22;11960;45.444;11.078;2022-07-04T00:49:31;29.10;58.70
23564;DHT22;11960;45.444;11.078;2022-07-04T00:51:34;29.10;58.90
23564;DHT22;11960;45.444;11.078;2022-07-04T00:53:37;29.10;58.90
23564;DHT22;11960;45.444;11.078;2022-07-04T00:55:40;29.10;59.00
23564;DHT22;11960;45.444;11.078;2022-07-04T00:57:43;29.10;58.90
23564;DHT22;11960;45.444;11.078;2022-07-04T00:59:45;29.10;58.70
23564;DHT22;11960;45.444;11.078;2022-07-04T01:01:48;29.00;58.10
23564;DHT22;11960;45.444;11.078;2022-07-04T01:03:52;29.00;57.80
23564;DHT22;11960;45.444;11.078;2022-07-04T01:05:55;28.90;57.20
23564;DHT22;11960;45.444;11.078;2022-07-04T01:08:01;28.90;57.10
23564;DHT22;11960;45.444;11.078;2022-07-04T01:10:03;28.90;56.80
23564;DHT22;11960;45.444;11.078;2022-07-04T01:12:06;28.90;57.10
23564;DHT22;11960;45.444;11.078;2022-07-04T01:14:09;28.90;57.90
23564;DHT22;11960;45.444;11.078;2022-07-04T01:16:11;28.80;58.30
23564;DHT22;11960;45.444;11.078;2022-07-04T01:18:14;28.80;58.90
23564;DHT22;11960;45.444;11.078;2022-07-04T01:20:17;28.80;59.60
23564;DHT22;11960;45.444;11.078;2022-07-04T01:22:20;28.80;59.60
23564;DHT22;11960;45.444;11.078;2022-07-04T01:24:24;28.70;59.50
23564;DHT22;11960;45.444;11.078;2022-07-04T01:26:28;28.70;59.60
23564;DHT22;11960;45.444;11.078;2022-07-04T01:28:31;28.70;59.20
23564;DHT22;11960;45.444;11.078;2022-07-04T01:30:36;28.60;58.60
23564;DHT22;11960;45.444;11.078;2022-07-04T01:32:38;28.60;58.70
23564;DHT22;11960;45.444;11.078;2022-07-04T01:34:41;28.50;59.00
23564;DHT22;11960;45.444;11.078;2022-07-04T01:36:45;28.50;59.00
23564;DHT22;11960;45.444;11.078;2022-07-04T01:38:48;28.50;58.80
23564;DHT22;11960;45.444;11.078;2022-07-04T01:40:50;28.50;59.20
23564;DHT22;11960;45.444;11.078;2022-07-04T01:42:53;28.50;59.30
23564;DHT22;11960;45.444;11.078;2022-07-04T01:44:56;28.50;59.50
23564;DHT22;11960;45.444;11.078;2022-07-04T01:46:58;28.50;59.40
23564;DHT22;11960;45.444;11.078;2022-07-04T01:49:01;28.50;59.50
23564;DHT22;11960;45.444;11.078;2022-07-04T01:51:04;28.50;59.30
23564;DHT22;11960;45.444;11.078;2022-07-04T01:53:07;28.40;59.00
23564;DHT22;11960;45.444;11.078;2022-07-04T01:55:10;28.40;58.80
23564;DHT22;11960;45.444;11.078;2022-07-04T01:57:13;28.40;58.60
23564;DHT22;11960;45.444;11.078;2022-07-04T01:59:15;28.40;58.90
23564;DHT22;11960;45.444;11.078;2022-07-04T02:01:18;28.40;59.80
23564;DHT22;11960;45.444;11.078;2022-07-04T02:03:33;28.40;60.30
23564;DHT22;11960;45.444;11.078;2022-07-04T02:05:35;28.40;60.40
23564;DHT22;11960;45.444;11.078;2022-07-04T02:07:39;28.30;60.30
23564;DHT22;11960;45.444;11.078;2022-07-04T02:09:42;28.30;60.40
23564;DHT22;11960;45.444;11.078;2022-07-04T02:11:45;28.30;59.90
23564;DHT22;11960;45.444;11.078;2022-07-04T02:14:06;28.30;59.90
23564;DHT22;11960;45.444;11.078;2022-07-04T02:16:09;28.30;60.10
23564;DHT22;11960;45.444;11.078;2022-07-04T02:18:12;28.30;60.60
23564;DHT22;11960;45.444;11.078;2022-07-04T02:20:15;28.30;60.50
23564;DHT22;11960;45.444;11.078;2022-07-04T02:22:18;28.30;60.40
23564;DHT22;11960;45.444;11.078;2022-07-04T02:24:20;28.30;61.00
23564;DHT22;11960;45.444;11.078;2022-07-04T02:26:23;28.30;61.40
23564;DHT22;11960;45.444;11.078;2022-07-04T02:28:25;28.30;61.80
23564;DHT22;11960;45.444;11.078;2022-07-04T02:30:28;28.20;62.30
23564;DHT22;11960;45.444;11.078;2022-07-04T02:32:30;28.20;62.60
23564;DHT22;11960;45.444;11.078;2022-07-04T02:34:33;28.20;62.80
23564;DHT22;11960;45.444;11.078;2022-07-04T02:36:36;28.10;62.50
23564;DHT22;11960;45.444;11.078;2022-07-04T02:38:38;28.10;63.00
23564;DHT22;11960;45.444;11.078;2022-07-04T02:40:41;28.10;62.70
23564;DHT22;11960;45.444;11.078;2022-07-04T02:42:43;28.00;62.80
23564;DHT22;11960;45.444;11.078;2022-07-04T02:44:46;28.00;62.70
23564;DHT22;11960;45.444;11.078;2022-07-04T02:46:50;28.00;62.60
23564;DHT22;11960;45.444;11.078;2022-07-04T02:48:53;27.90;62.50
23564;DHT22;11960;45.444;11.078;2022-07-04T02:50:56;27.90;63.00
23564;DHT22;11960;45.444;11.078;2022-07-04T02:52:59;27.90;63.20
23564;DHT22;11960;45.444;11.078;2022-07-04T02:55:01;27.90;62.80
23564;DHT22;11960;45.444;11.078;2022-07-04T02:57:04;27.80;63.20
23564;DHT22;11960;45.444;11.078;2022-07-04T02:59:07;27.80;62.10
23564;DHT22;11960;45.444;11.078;2022-07-04T03:01:10;27.70;62.30
23564;DHT22;11960;45.444;11.078;2022-07-04T03:03:14;27.70;62.20
23564;DHT22;11960;45.444;11.078;2022-07-04T03:05:17;27.70;61.90
23564;DHT22;11960;45.444;11.078;2022-07-04T03:07:20;27.70;61.90
23564;DHT22;11960;45.444;11.078;2022-07-04T03:09:22;27.60;61.30
23564;DHT22;11960;45.444;11.078;2022-07-04T03:11:25;27.60;60.50
23564;DHT22;11960;45.444;11.078;2022-07-04T03:13:28;27.60;60.50
23564;DHT22;11960;45.444;11.078;2022-07-04T03:15:31;27.60;60.90
23564;DHT22;11960;45.444;11.078;2022-07-04T03:17:34;27.60;60.90
23564;DHT22;11960;45.444;11.078;2022-07-04T03:19:36;27.60;61.60
23564;DHT22;11960;45.444;11.078;2022-07-04T03:21:39;27.50;61.40
23564;DHT22;11960;45.444;11.078;2022-07-04T03:23:42;27.50;61.10
23564;DHT22;11960;45.444;11.078;2022-07-04T03:25:44;27.50;60.80
23564;DHT22;11960;45.444;11.078;2022-07-04T03:27:47;27.50;61.20
23564;DHT22;11960;45.444;11.078;2022-07-04T03:29:49;27.40;61.50
23564;DHT22;11960;45.444;11.078;2022-07-04T03:31:52;27.40;61.50
23564;DHT22;11960;45.444;11.078;2022-07-04T03:33:55;27.40;61.20
23564;DHT22;11960;45.444;11.078;2022-07-04T03:35:57;27.40;61.00
23564;DHT22;11960;45.444;11.078;2022-07-04T03:38:00;27.30;61.00
23564;DHT22;11960;45.444;11.078;2022-07-04T03:40:03;27.40;61.30
23564;DHT22;11960;45.444;11.078;2022-07-04T03:42:05;27.40;61.50
23564;DHT22;11960;45.444;11.078;2022-07-04T03:44:08;27.40;61.80
23564;DHT22;11960;45.444;11.078;2022-07-04T03:46:10;27.40;62.20
23564;DHT22;11960;45.444;11.078;2022-07-04T03:48:13;27.40;62.40
23564;DHT22;11960;45.444;11.078;2022-07-04T03:50:16;27.30;62.50
23564;DHT22;11960;45.444;11.078;2022-07-04T03:52:19;27.30;62.60
23564;DHT22;11960;45.444;11.078;2022-07-04T03:54:21;27.20;63.20
23564;DHT22;11960;45.444;11.078;2022-07-04T03:56:24;27.20;63.40
23564;DHT22;11960;45.444;11.078;2022-07-04T03:58:26;27.20;64.90
23564;DHT22;11960;45.444;11.078;2022-07-04T04:00:29;27.20;66.00
23564;DHT22;11960;45.444;11.078;2022-07-04T04:02:32;27.10;66.00
23564;DHT22;11960;45.444;11.078;2022-07-04T04:04:34;27.10;66.00
23564;DHT22;11960;45.444;11.078;2022-07-04T04:06:56;27.00;64.50
23564;DHT22;11960;45.444;11.078;2022-07-04T04:08:58;27.00;63.80
23564;DHT22;11960;45.444;11.078;2022-07-04T04:11:01;26.90;63.40
23564;DHT22;11960;45.444;11.078;2022-07-04T04:13:04;27.00;63.30
23564;DHT22;11960;45.444;11.078;2022-07-04T04:15:06;26.90;62.90
23564;DHT22;11960;45.444;11.078;2022-07-04T04:17:09;27.00;62.90
23564;DHT22;11960;45.444;11.078;2022-07-04T04:19:12;27.00;63.20
23564;DHT22;11960;45.444;11.078;2022-07-04T04:21:15;27.00;63.10
23564;DHT22;11960;45.444;11.078;2022-07-04T04:23:18;26.90;62.90
23564;DHT22;11960;45.444;11.078;2022-07-04T04:25:22;26.90;62.60
23564;DHT22;11960;45.444;11.078;2022-07-04T04:27:25;26.90;62.10
23564;DHT22;11960;45.444;11.078;2022-07-04T04:29:27;27.00;62.20
23564;DHT22;11960;45.444;11.078;2022-07-04T04:31:30;26.90;62.10
23564;DHT22;11960;45.444;11.078;2022-07-04T04:33:36;27.00;63.00
23564;DHT22;11960;45.444;11.078;2022-07-04T04:35:38;27.00;63.30
23564;DHT22;11960;45.444;11.078;2022-07-04T04:37:41;27.00;63.40
23564;DHT22;11960;45.444;11.078;2022-07-04T04:39:44;27.00;63.10
23564;DHT22;11960;45.444;11.078;2022-07-04T04:41:46;27.00;63.00
23564;DHT22;11960;45.444;11.078;2022-07-04T04:43:49;27.10;63.20
23564;DHT22;11960;45.444;11.078;2022-07-04T04:45:54;27.10;62.80
23564;DHT22;11960;45.444;11.078;2022-07-04T04:47:57;27.10;62.30
23564;DHT22;11960;45.444;11.078;2022-07-04T04:50:01;27.10;62.10
23564;DHT22;11960;45.444;11.078;2022-07-04T04:52:48;27.10;61.70
23564;DHT22;11960;45.444;11.078;2022-07-04T04:54:51;27.10;63.90
23564;DHT22;11960;45.444;11.078;2022-07-04T04:56:54;27.10;65.10
23564;DHT22;11960;45.444;11.078;2022-07-04T04:59:03;27.10;65.20
23564;DHT22;11960;45.444;11.078;2022-07-04T05:01:06;27.10;65.50
23564;DHT22;11960;45.444;11.078;2022-07-04T05:03:29;27.10;65.00
23564;DHT22;11960;45.444;11.078;2022-07-04T05:05:32;27.10;64.20
23564;DHT22;11960;45.444;11.078;2022-07-04T05:07:34;27.10;64.30
23564;DHT22;11960;45.444;11.078;2022-07-04T05:09:37;27.10;63.30
23564;DHT22;11960;45.444;11.078;2022-07-04T05:11:40;27.10;63.00
23564;DHT22;11960;45.444;11.078;2022-07-04T05:13:43;27.10;63.80
23564;DHT22;11960;45.444;11.078;2022-07-04T05:15:46;27.20;63.50
23564;DHT22;11960;45.444;11.078;2022-07-04T05:17:49;27.20;63.80
23564;DHT22;11960;45.444;11.078;2022-07-04T05:19:52;27.20;63.50
23564;DHT22;11960;45.444;11.078;2022-07-04T05:21:55;27.20;62.50
23564;DHT22;11960;45.444;11.078;2022-07-04T05:23:58;27.20;61.50
23564;DHT22;11960;45.444;11.078;2022-07-04T05:26:00;27.30;61.30
23564;DHT22;11960;45.444;11.078;2022-07-04T05:28:03;27.30;61.30
23564;DHT22;11960;45.444;11.078;2022-07-04T05:30:06;27.30;61.60
23564;DHT22;11960;45.444;11.078;2022-07-04T05:32:09;27.30;61.40
23564;DHT22;11960;45.444;11.078;2022-07-04T05:34:12;27.30;61.90
23564;DHT22;11960;45.444;11.078;2022-07-04T05:36:15;27.40;62.10
23564;DHT22;11960;45.444;11.078;2022-07-04T05:38:17;27.40;61.30
23564;DHT22;11960;45.444;11.078;2022-07-04T05:40:20;27.40;61.20
23564;DHT22;11960;45.444;11.078;2022-07-04T05:42:24;27.40;60.70
23564;DHT22;11960;45.444;11.078;2022-07-04T05:44:26;27.50;60.00
23564;DHT22;11960;45.444;11.078;2022-07-04T05:46:30;27.50;59.70
23564;DHT22;11960;45.444;11.078;2022-07-04T05:48:33;27.50;60.00
23564;DHT22;11960;45.444;11.078;2022-07-04T05:50:36;27.60;60.10
23564;DHT22;11960;45.444;11.078;2022-07-04T05:52:39;27.60;60.10
23564;DHT22;11960;45.444;11.078;2022-07-04T05:54:41;27.60;60.60
23564;DHT22;11960;45.444;11.078;2022-07-04T05:56:44;27.60;61.70
23564;DHT22;11960;45.444;11.078;2022-07-04T05:58:47;27.70;63.10
23564;DHT22;11960;45.444;11.078;2022-07-04T06:00:50;27.70;63.10
23564;DHT22;11960;45.444;11.078;2022-07-04T06:02:53;27.70;64.20
23564;DHT22;11960;45.444;11.078;2022-07-04T06:04:55;27.80;64.50
23564;DHT22;11960;45.444;11.078;2022-07-04T06:06:58;27.80;64.90
23564;DHT22;11960;45.444;11.078;2022-07-04T06:09:01;27.80;65.10
23564;DHT22;11960;45.444;11.078;2022-07-04T06:11:05;27.80;65.00
23564;DHT22;11960;45.444;11.078;2022-07-04T06:13:08;27.90;65.00
23564;DHT22;11960;45.444;11.078;2022-07-04T06:15:11;27.90;64.60
23564;DHT22;11960;45.444;11.078;2022-07-04T06:17:14;28.00;64.20
23564;DHT22;11960;45.444;11.078;2022-07-04T06:19:17;28.00;63.80
23564;DHT22;11960;45.444;11.078;2022-07-04T06:21:19;28.00;63.50
23564;DHT22;11960;45.444;11.078;2022-07-04T06:23:22;28.00;63.40
23564;DHT22;11960;45.444;11.078;2022-07-04T06:28:05;28.10;62.60
23564;DHT22;11960;45.444;11.078;2022-07-04T06:30:09;28.20;62.20
23564;DHT22;11960;45.444;11.078;2022-07-04T06:32:14;28.20;61.50
23564;DHT22;11960;45.444;11.078;2022-07-04T06:34:16;28.20;59.60
23564;DHT22;11960;45.444;11.078;2022-07-04T06:36:38;28.30;59.20
23564;DHT22;11960;45.444;11.078;2022-07-04T06:38:46;28.30;59.10
23564;DHT22;11960;45.444;11.078;2022-07-04T06:40:55;28.30;59.00
23564;DHT22;11960;45.444;11.078;2022-07-04T06:43:04;28.40;58.20
23564;DHT22;11960;45.444;11.078;2022-07-04T06:45:07;28.40;57.70
23564;DHT22;11960;45.444;11.078;2022-07-04T06:47:13;28.50;57.30
23564;DHT22;11960;45.444;11.078;2022-07-04T06:49:20;28.50;57.60
23564;DHT22;11960;45.444;11.078;2022-07-04T06:51:23;28.50;57.80
23564;DHT22;11960;45.444;11.078;2022-07-04T06:53:25;28.60;58.20
23564;DHT22;11960;45.444;11.078;2022-07-04T06:55:28;28.60;58.00
23564;DHT22;11960;45.444;11.078;2022-07-04T06:57:31;28.60;57.10
23564;DHT22;11960;45.444;11.078;2022-07-04T06:59:36;28.70;56.10
23564;DHT22;11960;45.444;11.078;2022-07-04T07:01:39;28.70;54.90
23564;DHT22;11960;45.444;11.078;2022-07-04T07:03:41;28.80;54.10
23564;DHT22;11960;45.444;11.078;2022-07-04T07:05:46;28.80;53.60
23564;DHT22;11960;45.444;11.078;2022-07-04T07:08:09;28.90;54.20
23564;DHT22;11960;45.444;11.078;2022-07-04T07:10:13;28.90;54.30
23564;DHT22;11960;45.444;11.078;2022-07-04T07:12:18;29.00;54.00
23564;DHT22;11960;45.444;11.078;2022-07-04T07:14:21;29.10;54.30
23564;DHT22;11960;45.444;11.078;2022-07-04T07:16:30;29.10;54.40
23564;DHT22;11960;45.444;11.078;2022-07-04T07:18:58;29.20;54.50
23564;DHT22;11960;45.444;11.078;2022-07-04T07:21:01;29.30;54.50
23564;DHT22;11960;45.444;11.078;2022-07-04T07:23:06;29.30;54.50
23564;DHT22;11960;45.444;11.078;2022-07-04T07:25:12;29.30;53.40
23564;DHT22;11960;45.444;11.078;2022-07-04T07:27:14;29.40;53.40
23564;DHT22;11960;45.444;11.078;2022-07-04T07:29:18;29.50;53.50
23564;DHT22;11960;45.444;11.078;2022-07-04T07:31:21;29.50;53.60
23564;DHT22;11960;45.444;11.078;2022-07-04T07:33:24;29.60;53.90
23564;DHT22;11960;45.444;11.078;2022-07-04T07:35:31;29.60;54.30
23564;DHT22;11960;45.444;11.078;2022-07-04T07:37:58;29.70;53.30
23564;DHT22;11960;45.444;11.078;2022-07-04T07:40:01;29.80;52.90
23564;DHT22;11960;45.444;11.078;2022-07-04T07:42:07;29.80;52.90
23564;DHT22;11960;45.444;11.078;2022-07-04T07:44:11;29.80;53.10
23564;DHT22;11960;45.444;11.078;2022-07-04T07:46:14;29.90;52.70
23564;DHT22;11960;45.444;11.078;2022-07-04T07:48:17;29.90;52.50
23564;DHT22;11960;45.444;11.078;2022-07-04T07:50:19;30.00;52.70
23564;DHT22;11960;45.444;11.078;2022-07-04T07:52:22;30.00;52.40
23564;DHT22;11960;45.444;11.078;2022-07-04T07:54:31;30.00;51.90
23564;DHT22;11960;45.444;11.078;2022-07-04T07:56:54;30.10;52.00
23564;DHT22;11960;45.444;11.078;2022-07-04T07:58:57;30.10;52.20
23564;DHT22;11960;45.444;11.078;2022-07-04T08:01:00;30.10;52.40
23564;DHT22;11960;45.444;11.078;2022-07-04T08:03:04;30.20;51.80
23564;DHT22;11960;45.444;11.078;2022-07-04T08:05:26;30.20;52.30
23564;DHT22;11960;45.444;11.078;2022-07-04T08:07:29;30.40;51.90
23564;DHT22;11960;45.444;11.078;2022-07-04T08:09:32;30.40;51.60
23564;DHT22;11960;45.444;11.078;2022-07-04T08:11:36;30.50;50.30
23564;DHT22;11960;45.444;11.078;2022-07-04T08:13:39;30.60;50.30
23564;DHT22;11960;45.444;11.078;2022-07-04T08:15:42;30.70;50.30
23564;DHT22;11960;45.444;11.078;2022-07-04T08:17:48;30.90;49.60
23564;DHT22;11960;45.444;11.078;2022-07-04T08:19:50;30.90;47.40
23564;DHT22;11960;45.444;11.078;2022-07-04T08:21:54;30.90;47.50
23564;DHT22;11960;45.444;11.078;2022-07-04T08:24:16;31.00;47.40
23564;DHT22;11960;45.444;11.078;2022-07-04T08:26:21;31.00;47.50
23564;DHT22;11960;45.444;11.078;2022-07-04T08:28:28;31.10;48.20
23564;DHT22;11960;45.444;11.078;2022-07-04T08:30:32;31.20;48.30
23564;DHT22;11960;45.444;11.078;2022-07-04T08:32:35;31.30;48.50
23564;DHT22;11960;45.444;11.078;2022-07-04T08:34:38;31.40;47.40
23564;DHT22;11960;45.444;11.078;2022-07-04T08:36:40;31.50;45.90
23564;DHT22;11960;45.444;11.078;2022-07-04T08:38:43;31.50;45.10
23564;DHT22;11960;45.444;11.078;2022-07-04T08:40:46;31.50;45.50
23564;DHT22;11960;45.444;11.078;2022-07-04T08:42:53;31.60;45.10
23564;DHT22;11960;45.444;11.078;2022-07-04T08:45:33;31.60;45.20
23564;DHT22;11960;45.444;11.078;2022-07-04T08:47:33;31.60;44.80
23564;DHT22;11960;45.444;11.078;2022-07-04T08:49:40;31.60;46.10
23564;DHT22;11960;45.444;11.078;2022-07-04T08:54:01;31.80;43.90
23564;DHT22;11960;45.444;11.078;2022-07-04T08:56:24;31.90;44.50
23564;DHT22;11960;45.444;11.078;2022-07-04T08:58:49;31.90;43.50
23564;DHT22;11960;45.444;11.078;2022-07-04T09:00:59;31.90;43.90
23564;DHT22;11960;45.444;11.078;2022-07-04T09:03:05;32.00;43.90
23564;DHT22;11960;45.444;11.078;2022-07-04T09:05:08;32.00;44.40
23564;DHT22;11960;45.444;11.078;2022-07-04T09:07:12;32.10;44.60
23564;DHT22;11960;45.444;11.078;2022-07-04T09:09:18;32.10;43.40
23564;DHT22;11960;45.444;11.078;2022-07-04T09:11:21;32.10;44.60
23564;DHT22;11960;45.444;11.078;2022-07-04T09:13:24;32.20;44.30
23564;DHT22;11960;45.444;11.078;2022-07-04T09:15:29;32.20;44.60
23564;DHT22;11960;45.444;11.078;2022-07-04T09:17:33;32.20;44.20
23564;DHT22;11960;45.444;11.078;2022-07-04T09:19:36;32.20;44.40
23564;DHT22;11960;45.444;11.078;2022-07-04T09:21:43;32.20;44.40
23564;DHT22;11960;45.444;11.078;2022-07-04T09:23:46;32.30;44.50
23564;DHT22;11960;45.444;11.078;2022-07-04T09:26:07;32.30;44.60
23564;DHT22;11960;45.444;11.078;2022-07-04T09:28:10;32.30;44.40
23564;DHT22;11960;45.444;11.078;2022-07-04T09:30:22;32.20;44.20
23564;DHT22;11960;45.444;11.078;2022-07-04T09:32:44;32.20;44.50
23564;DHT22;11960;45.444;11.078;2022-07-04T09:34:56;32.10;44.50
23564;DHT22;11960;45.444;11.078;2022-07-04T09:36:59;32.10;44.80
23564;DHT22;11960;45.444;11.078;2022-07-04T09:41:17;32.20;45.90
23564;DHT22;11960;45.444;11.078;2022-07-04T09:43:32;32.20;44.90
23564;DHT22;11960;45.444;11.078;2022-07-04T09:46:01;32.20;43.70
23564;DHT22;11960;45.444;11.078;2022-07-04T09:48:04;32.20;43.50
23564;DHT22;11960;45.444;11.078;2022-07-04T09:50:13;32.20;42.90
23564;DHT22;11960;45.444;11.078;2022-07-04T09:52:19;32.20;43.20
23564;DHT22;11960;45.444;11.078;2022-07-04T09:54:28;32.30;43.10
23564;DHT22;11960;45.444;11.078;2022-07-04T09:56:45;32.40;42.60
23564;DHT22;11960;45.444;11.078;2022-07-04T09:58:57;32.40;41.90
23564;DHT22;11960;45.444;11.078;2022-07-04T10:01:00;32.40;42.10
23564;DHT22;11960;45.444;11.078;2022-07-04T10:03:32;32.50;42.90
23564;DHT22;11960;45.444;11.078;2022-07-04T10:05:45;32.60;43.20
23564;DHT22;11960;45.444;11.078;2022-07-04T10:07:47;32.60;42.80
23564;DHT22;11960;45.444;11.078;2022-07-04T10:09:52;32.70;43.20
23564;DHT22;11960;45.444;11.078;2022-07-04T10:11:54;32.80;42.10
23564;DHT22;11960;45.444;11.078;2022-07-04T10:14:03;32.80;42.80
23564;DHT22;11960;45.444;11.078;2022-07-04T10:16:06;32.80;41.80
23564;DHT22;11960;45.444;11.078;2022-07-04T10:18:12;32.90;42.30
23564;DHT22;11960;45.444;11.078;2022-07-04T10:20:20;32.90;41.90
23564;DHT22;11960;45.444;11.078;2022-07-04T10:22:22;32.80;41.30
23564;DHT22;11960;45.444;11.078;2022-07-04T10:24:27;32.80;41.30
23564;DHT22;11960;45.444;11.078;2022-07-04T10:26:31;32.80;41.50
23564;DHT22;11960;45.444;11.078;2022-07-04T10:28:34;32.80;41.70
23564;DHT22;11960;45.444;11.078;2022-07-04T10:30:42;32.90;41.80
23564;DHT22;11960;45.444;11.078;2022-07-04T10:32:46;33.10;42.20
23564;DHT22;11960;45.444;11.078;2022-07-04T10:34:51;33.10;42.10
23564;DHT22;11960;45.444;11.078;2022-07-04T10:36:54;33.30;40.50
23564;DHT22;11960;45.444;11.078;2022-07-04T10:39:03;33.40;39.50
23564;DHT22;11960;45.444;11.078;2022-07-04T10:41:07;33.40;39.50
23564;DHT22;11960;45.444;11.078;2022-07-04T10:45:39;33.40;39.20
23564;DHT22;11960;45.444;11.078;2022-07-04T10:47:54;33.40;39.80
23564;DHT22;11960;45.444;11.078;2022-07-04T10:49:57;33.40;40.10
23564;DHT22;11960;45.444;11.078;2022-07-04T10:52:11;33.50;40.30
23564;DHT22;11960;45.444;11.078;2022-07-04T10:54:31;33.60;39.70
23564;DHT22;11960;45.444;11.078;2022-07-04T10:58:50;33.70;38.90
23564;DHT22;11960;45.444;11.078;2022-07-04T11:01:19;33.70;38.80
23564;DHT22;11960;45.444;11.078;2022-07-04T11:03:22;33.70;38.80
23564;DHT22;11960;45.444;11.078;2022-07-04T11:05:31;33.70;38.80
23564;DHT22;11960;45.444;11.078;2022-07-04T11:09:42;33.70;39.20
23564;DHT22;11960;45.444;11.078;2022-07-04T11:11:58;33.70;38.60
23564;DHT22;11960;45.444;11.078;2022-07-04T11:16:53;34.00;40.10
23564;DHT22;11960;45.444;11.078;2022-07-04T11:18:56;34.00;38.10
23564;DHT22;11960;45.444;11.078;2022-07-04T11:21:01;34.10;37.30
23564;DHT22;11960;45.444;11.078;2022-07-04T11:23:07;34.20;37.80
23564;DHT22;11960;45.444;11.078;2022-07-04T11:25:11;34.20;38.80
23564;DHT22;11960;45.444;11.078;2022-07-04T11:27:14;34.30;39.00
23564;DHT22;11960;45.444;11.078;2022-07-04T11:29:17;34.40;38.70
23564;DHT22;11960;45.444;11.078;2022-07-04T11:31:35;34.40;37.70
23564;DHT22;11960;45.444;11.078;2022-07-04T11:33:41;34.40;37.20
23564;DHT22;11960;45.444;11.078;2022-07-04T11:36:07;34.40;37.80
23564;DHT22;11960;45.444;11.078;2022-07-04T11:38:17;34.40;36.90
23564;DHT22;11960;45.444;11.078;2022-07-04T11:40:24;34.50;36.90
23564;DHT22;11960;45.444;11.078;2022-07-04T11:43:05;34.50;37.30
23564;DHT22;11960;45.444;11.078;2022-07-04T11:45:26;34.60;36.30
23564;DHT22;11960;45.444;11.078;2022-07-04T11:49:45;34.70;36.80
23564;DHT22;11960;45.444;11.078;2022-07-04T11:51:48;34.70;37.20
23564;DHT22;11960;45.444;11.078;2022-07-04T11:54:03;34.70;36.90
23564;DHT22;11960;45.444;11.078;2022-07-04T11:56:26;34.80;36.90
23564;DHT22;11960;45.444;11.078;2022-07-04T11:58:42;34.80;36.40
23564;DHT22;11960;45.444;11.078;2022-07-04T12:00:44;34.70;36.60
23564;DHT22;11960;45.444;11.078;2022-07-04T12:02:48;34.60;36.60
23564;DHT22;11960;45.444;11.078;2022-07-04T12:04:52;34.60;37.40
23564;DHT22;11960;45.444;11.078;2022-07-04T12:06:54;34.60;36.80
23564;DHT22;11960;45.444;11.078;2022-07-04T12:08:59;34.60;37.00
23564;DHT22;11960;45.444;11.078;2022-07-04T12:11:03;34.60;36.80
23564;DHT22;11960;45.444;11.078;2022-07-04T12:13:07;34.50;36.70
23564;DHT22;11960;45.444;11.078;2022-07-04T12:15:12;34.40;37.00
23564;DHT22;11960;45.444;11.078;2022-07-04T12:17:17;34.40;37.20
23564;DHT22;11960;45.444;11.078;2022-07-04T12:19:21;34.40;37.20
23564;DHT22;11960;45.444;11.078;2022-07-04T12:21:24;34.50;37.20
23564;DHT22;11960;45.444;11.078;2022-07-04T12:23:26;34.60;37.80
23564;DHT22;11960;45.444;11.078;2022-07-04T12:25:36;34.70;38.10
23564;DHT22;11960;45.444;11.078;2022-07-04T12:27:42;34.70;36.70
23564;DHT22;11960;45.444;11.078;2022-07-04T12:29:50;34.80;37.40
23564;DHT22;11960;45.444;11.078;2022-07-04T12:31:52;34.90;37.30
23564;DHT22;11960;45.444;11.078;2022-07-04T12:34:00;35.00;37.90
23564;DHT22;11960;45.444;11.078;2022-07-04T12:36:05;35.20;36.80
23564;DHT22;11960;45.444;11.078;2022-07-04T12:38:12;35.30;37.60
23564;DHT22;11960;45.444;11.078;2022-07-04T12:40:15;35.40;36.20
23564;DHT22;11960;45.444;11.078;2022-07-04T12:42:20;35.40;36.20
23564;DHT22;11960;45.444;11.078;2022-07-04T12:44:23;35.40;36.50
23564;DHT22;11960;45.444;11.078;2022-07-04T12:48:30;35.40;36.40
23564;DHT22;11960;45.444;11.078;2022-07-04T12:50:33;35.50;36.40
23564;DHT22;11960;45.444;11.078;2022-07-04T12:52:39;35.50;35.80
23564;DHT22;11960;45.444;11.078;2022-07-04T12:54:44;35.50;35.50
23564;DHT22;11960;45.444;11.078;2022-07-04T12:57:16;35.60;35.50
23564;DHT22;11960;45.444;11.078;2022-07-04T12:59:20;35.60;36.00
23564;DHT22;11960;45.444;11.078;2022-07-04T13:01:23;35.60;36.10
23564;DHT22;11960;45.444;11.078;2022-07-04T13:03:26;35.60;36.50
23564;DHT22;11960;45.444;11.078;2022-07-04T13:05:36;35.70;36.90
23564;DHT22;11960;45.444;11.078;2022-07-04T13:07:39;35.70;36.30
23564;DHT22;11960;45.444;11.078;2022-07-04T13:09:45;35.80;35.90
23564;DHT22;11960;45.444;11.078;2022-07-04T13:11:50;35.90;36.10
23564;DHT22;11960;45.444;11.078;2022-07-04T13:14:14;35.90;36.20
23564;DHT22;11960;45.444;11.078;2022-07-04T13:16:17;35.90;36.70
23564;DHT22;11960;45.444;11.078;2022-07-04T13:18:23;36.00;35.80
23564;DHT22;11960;45.444;11.078;2022-07-04T13:20:26;36.10;36.00